createdAt,value
2023-04-15T00:01:01.509Z,70.60
2023-04-15T00:03:30.144Z,70.66
2023-04-15T00:05:58.922Z,70.58
2023-04-15T00:08:27.482Z,70.56
2023-04-15T00:10:55.640Z,70.55
2023-04-15T00:13:23.797Z,70.50
2023-04-15T00:15:52.382Z,70.61
2023-04-15T00:18:20.360Z,70.69
2023-04-15T00:20:48.855Z,70.77
2023-04-15T00:23:18.182Z,71.08
2023-04-15T00:25:46.490Z,71.07
2023-04-15T00:28:14.557Z,71.11
2023-04-15T00:30:44.562Z,71.35
2023-04-15T00:33:13.960Z,71.51
2023-04-15T00:35:42.137Z,71.66
2023-04-15T00:38:10.392Z,72.22
2023-04-15T00:40:38.623Z,72.06
2023-04-15T00:43:07.186Z,72.16
2023-04-15T00:45:35.722Z,72.70
2023-04-15T00:48:04.686Z,72.55
2023-04-15T00:50:33.476Z,72.53
2023-04-15T00:53:01.653Z,72.70
2023-04-15T00:55:29.810Z,72.90
2023-04-15T00:57:58.181Z,73.05
2023-04-15T01:00:27.065Z,73.04
2023-04-15T01:02:55.166Z,73.11
2023-04-15T01:05:23.727Z,73.68
2023-04-15T01:07:51.992Z,73.91
2023-04-15T01:10:19.945Z,74.27
2023-04-15T01:12:48.172Z,74.53
2023-04-15T01:15:16.400Z,74.92
2023-04-15T01:17:44.821Z,75.10
2023-04-15T01:20:13.448Z,75.47
2023-04-15T01:22:41.780Z,75.42
2023-04-15T01:25:13.263Z,75.55
2023-04-15T01:27:42.684Z,75.78
2023-04-15T01:30:11.620Z,75.99
2023-04-15T01:32:39.661Z,76.20
2023-04-15T01:35:07.973Z,76.98
2023-04-15T01:37:36.931Z,76.97
2023-04-15T01:40:05.531Z,77.28
2023-04-15T01:42:34.103Z,77.35
2023-04-15T01:45:02.818Z,77.64
2023-04-15T01:47:31.298Z,78.45
2023-04-15T01:49:59.278Z,78.57
2023-04-15T01:52:27.339Z,79.08
2023-04-15T01:54:55.275Z,79.24
2023-04-15T01:57:23.417Z,79.30
2023-04-15T01:59:54.360Z,79.39
2023-04-15T02:02:22.963Z,79.74
2023-04-15T02:04:51.341Z,79.90
2023-04-15T02:07:20.959Z,80.06
2023-04-15T02:09:48.985Z,80.39
2023-04-15T02:12:17.083Z,80.49
2023-04-15T02:14:46.306Z,80.74
2023-04-15T02:17:14.221Z,80.81
2023-04-15T02:19:44.698Z,81.00
2023-04-15T02:22:18.705Z,81.12
2023-04-15T02:24:47.897Z,81.43
2023-04-15T02:27:17.366Z,81.76
2023-04-15T02:29:46.065Z,81.99
2023-04-15T02:32:14.640Z,82.02
2023-04-15T02:34:43.030Z,82.04
2023-04-15T02:37:12.565Z,82.55
2023-04-15T02:39:40.680Z,82.60
2023-04-15T02:42:08.743Z,82.59
2023-04-15T02:44:38.153Z,82.59
2023-04-15T02:47:07.721Z,82.64
2023-04-15T02:49:35.883Z,82.80
2023-04-15T02:52:04.066Z,82.95
2023-04-15T02:54:34.301Z,83.17
2023-04-15T02:57:04.098Z,83.21
2023-04-15T02:59:32.324Z,83.44
2023-04-15T03:02:57.358Z,83.39
2023-04-15T03:05:44.611Z,83.49
2023-04-15T03:08:14.911Z,83.61
2023-04-15T03:10:42.870Z,83.43
2023-04-15T03:13:11.399Z,83.75
2023-04-15T03:15:40.081Z,83.79
2023-04-15T03:18:08.232Z,83.98
2023-04-15T03:20:36.638Z,83.84
2023-04-15T03:23:05.347Z,83.84
2023-04-15T03:25:33.435Z,83.78
2023-04-15T03:28:01.580Z,83.82
2023-04-15T03:30:29.684Z,83.79
2023-04-15T03:32:57.939Z,83.95
2023-04-15T03:35:27.120Z,84.04
2023-04-15T03:37:57.480Z,83.77
2023-04-15T03:40:26.700Z,83.97
2023-04-15T03:42:54.793Z,84.00
2023-04-15T03:45:22.829Z,83.93
2023-04-15T03:47:51.244Z,83.89
2023-04-15T03:50:19.422Z,84.16
2023-04-15T03:52:48.290Z,84.22
2023-04-15T03:55:17.652Z,84.03
2023-04-15T03:57:46.089Z,84.20
2023-04-15T04:00:14.246Z,84.16
2023-04-15T04:02:42.317Z,84.33
2023-04-15T04:05:10.860Z,84.51
2023-04-15T04:07:38.881Z,84.41
2023-04-15T04:10:07.305Z,84.45
2023-04-15T04:12:35.424Z,84.41
2023-04-15T04:15:03.940Z,84.63
2023-04-15T04:17:31.988Z,84.76
2023-04-15T04:20:00.211Z,84.67
2023-04-15T04:22:28.295Z,84.87
2023-04-15T04:24:56.842Z,84.79
2023-04-15T04:27:25.571Z,84.99
2023-04-15T04:29:53.480Z,85.07
2023-04-15T04:32:21.931Z,85.03
2023-04-15T04:34:50.145Z,85.08
2023-04-15T04:37:18.304Z,85.20
2023-04-15T04:39:46.290Z,85.42
2023-04-15T04:42:14.459Z,85.25
2023-04-15T04:44:42.933Z,85.37
2023-04-15T04:47:11.588Z,85.36
2023-04-15T04:49:39.861Z,85.32
2023-04-15T04:52:08.007Z,85.43
2023-04-15T04:54:35.993Z,85.60
2023-04-15T04:57:05.082Z,85.53
2023-04-15T04:59:33.355Z,85.52
2023-04-15T05:02:01.581Z,85.70
2023-04-15T05:04:29.694Z,85.65
2023-04-15T05:06:58.506Z,85.70
2023-04-15T05:09:26.680Z,85.89
2023-04-15T05:11:54.657Z,85.73
2023-04-15T05:14:23.403Z,85.79
2023-04-15T05:16:51.584Z,85.79
2023-04-15T05:19:19.603Z,85.83
2023-04-15T05:21:47.596Z,85.99
2023-04-15T05:24:15.727Z,86.11
2023-04-15T05:26:44.057Z,86.07
2023-04-15T05:29:12.123Z,86.05
2023-04-15T05:31:40.234Z,86.02
2023-04-15T05:34:08.715Z,86.32
2023-04-15T05:36:36.839Z,86.40
2023-04-15T05:39:04.982Z,86.49
2023-04-15T05:41:33.207Z,86.26
2023-04-15T05:44:01.652Z,86.44
2023-04-15T05:46:29.623Z,86.49
2023-04-15T05:48:57.847Z,86.33
2023-04-15T05:51:26.599Z,86.24
2023-04-15T05:53:54.648Z,86.40
2023-04-15T05:56:22.819Z,86.80
2023-04-15T05:58:53.367Z,86.75
2023-04-15T06:01:22.437Z,86.70
2023-04-15T06:03:51.390Z,86.68
2023-04-15T06:06:20.639Z,86.91
2023-04-15T06:08:48.473Z,86.79
2023-04-15T06:11:16.488Z,86.92
2023-04-15T06:13:44.743Z,86.94
2023-04-15T06:16:12.695Z,87.11
2023-04-15T06:18:40.811Z,87.21
2023-04-15T06:21:08.973Z,87.14
2023-04-15T06:23:37.244Z,87.20
2023-04-15T06:26:05.515Z,87.34
2023-04-15T06:28:33.592Z,87.41
2023-04-15T06:31:02.126Z,87.43
2023-04-15T06:33:30.847Z,87.41
2023-04-15T06:35:59.234Z,87.45
2023-04-15T06:38:27.135Z,87.58
2023-04-15T06:40:55.574Z,87.53
2023-04-15T06:43:23.714Z,87.60
2023-04-15T06:45:51.850Z,87.53
2023-04-15T06:48:19.983Z,87.79
2023-04-15T06:50:48.360Z,87.82
2023-04-15T06:53:16.354Z,87.85
2023-04-15T06:55:45.002Z,87.84
2023-04-15T06:58:15.405Z,87.92
2023-04-15T07:00:43.564Z,88.15
2023-04-15T07:03:13.281Z,87.96
2023-04-15T07:05:41.871Z,87.93
2023-04-15T07:08:09.812Z,88.07
2023-04-15T07:10:38.265Z,88.23
2023-04-15T07:13:07.530Z,88.13
2023-04-15T07:15:35.856Z,88.17
2023-04-15T07:18:04.376Z,88.32
2023-04-15T07:20:32.656Z,88.32
2023-04-15T07:23:00.694Z,88.22
2023-04-15T07:25:28.748Z,88.17
2023-04-15T07:27:57.174Z,88.20
2023-04-15T07:30:25.286Z,88.29
2023-04-15T07:32:53.483Z,88.40
2023-04-15T07:35:21.856Z,88.39
2023-04-15T07:37:49.949Z,88.43
2023-04-15T07:40:18.348Z,88.50
2023-04-15T07:42:48.595Z,88.50
2023-04-15T07:45:17.005Z,88.71
2023-04-15T07:47:45.006Z,88.63
2023-04-15T07:50:13.135Z,88.60
2023-04-15T07:52:43.182Z,88.62
2023-04-15T07:55:11.677Z,88.64
2023-04-15T07:57:39.744Z,88.76
2023-04-15T08:00:10.594Z,88.72
2023-04-15T08:02:41.950Z,88.62
2023-04-15T08:05:11.009Z,88.59
2023-04-15T08:07:39.027Z,88.61
2023-04-15T08:10:10.696Z,88.59
2023-04-15T08:12:44.936Z,88.52
2023-04-15T09:34:38.271Z,89.18
2023-04-15T09:37:08.118Z,89.30
2023-04-15T09:39:50.366Z,89.31
2023-04-15T09:42:27.500Z,89.36
2023-04-15T09:44:55.589Z,89.38
2023-04-15T09:47:33.051Z,89.27
2023-04-15T09:50:02.525Z,89.35
2023-04-15T09:52:32.169Z,89.34
2023-04-15T09:55:01.092Z,89.39
2023-04-15T09:57:36.921Z,89.37
2023-04-15T10:00:08.420Z,89.49
2023-04-15T10:02:40.902Z,89.42
2023-04-15T10:05:14.991Z,89.45
2023-04-15T10:07:43.765Z,89.69
2023-04-15T10:10:16.276Z,89.76
2023-04-15T10:12:45.603Z,89.78
2023-04-15T10:15:17.891Z,89.76
2023-04-15T10:17:48.304Z,89.82
2023-04-15T10:20:19.986Z,89.92
2023-04-15T10:22:50.205Z,90.02
2023-04-15T10:25:19.285Z,89.93
2023-04-15T10:27:49.883Z,89.89
2023-04-15T10:30:25.936Z,90.02
2023-04-15T10:32:55.587Z,89.97
2023-04-15T10:35:25.193Z,89.92
2023-04-15T10:37:56.374Z,90.14
2023-04-15T10:40:35.300Z,90.15
2023-04-15T10:43:03.927Z,90.26
2023-04-15T10:45:39.422Z,90.13
2023-04-15T10:48:09.209Z,90.18
2023-04-15T10:50:40.276Z,90.29
2023-04-15T10:53:11.299Z,90.11
2023-04-15T10:55:39.379Z,90.22
2023-04-15T10:58:10.524Z,90.39
2023-04-15T11:00:40.309Z,90.42
2023-04-15T11:03:10.114Z,90.50
2023-04-15T11:05:41.732Z,90.56
2023-04-15T11:08:12.950Z,90.57
2023-04-15T11:10:41.144Z,90.53
2023-04-15T11:13:12.039Z,90.67
2023-04-15T11:16:05.262Z,90.77
2023-04-15T11:18:34.808Z,90.70
2023-04-15T11:21:07.875Z,90.53
2023-04-15T11:23:39.920Z,90.31
2023-04-15T11:26:12.218Z,90.16
2023-04-15T11:28:42.898Z,90.20
2023-04-15T11:31:13.561Z,90.14
2023-04-15T11:33:56.664Z,90.02
2023-04-15T11:36:30.478Z,89.76
2023-04-15T11:38:59.778Z,89.60
2023-04-15T11:41:28.926Z,89.56
2023-04-15T11:43:56.914Z,89.68
2023-04-15T11:46:32.163Z,89.50
2023-04-15T11:49:01.778Z,89.60
2023-04-15T11:51:34.276Z,89.63
2023-04-15T11:54:03.001Z,89.72
2023-04-15T11:56:32.128Z,89.76
2023-04-15T11:59:00.335Z,89.74
2023-04-15T12:01:46.687Z,89.69
2023-04-15T12:04:25.362Z,89.52
2023-04-15T12:06:54.188Z,88.98
2023-04-15T12:09:22.326Z,88.85
2023-04-15T12:11:57.727Z,88.80
2023-04-15T12:14:31.278Z,88.60
2023-04-15T12:17:01.613Z,88.55
2023-04-15T12:19:43.355Z,88.26
2023-04-15T12:22:13.102Z,87.71
2023-04-15T12:24:52.516Z,87.37
2023-04-15T12:27:21.375Z,87.27
2023-04-15T12:29:49.813Z,87.50
2023-04-15T12:32:21.610Z,87.67
2023-04-15T12:34:52.390Z,87.79
2023-04-15T12:37:22.282Z,87.71
2023-04-15T12:39:51.660Z,88.01
2023-04-15T12:42:20.737Z,87.60
2023-04-15T12:44:48.707Z,87.70
2023-04-15T12:47:16.823Z,87.68
2023-04-15T12:49:45.868Z,87.91
2023-04-15T12:52:16.683Z,87.75
2023-04-15T12:54:44.938Z,87.39
2023-04-15T12:57:12.988Z,87.61
2023-04-15T12:59:41.197Z,87.32
2023-04-15T13:02:09.225Z,87.13
2023-04-15T13:04:37.587Z,87.13
2023-04-15T13:07:05.782Z,87.22
2023-04-15T13:09:34.141Z,87.47
2023-04-15T13:12:02.224Z,87.54
2023-04-15T13:14:31.263Z,87.25
2023-04-15T13:16:59.495Z,86.88
2023-04-15T13:19:27.919Z,87.13
2023-04-15T13:21:56.246Z,87.16
2023-04-15T13:24:24.232Z,87.06
2023-04-15T13:26:53.710Z,86.80
2023-04-15T13:29:22.328Z,86.60
2023-04-15T13:31:50.594Z,86.45
2023-04-15T13:34:18.957Z,86.18
2023-04-15T13:36:47.335Z,85.47
2023-04-15T13:39:15.489Z,85.05
2023-04-15T13:41:43.646Z,84.71
2023-04-15T13:44:12.785Z,82.94
2023-04-15T13:46:42.765Z,81.69
2023-04-15T13:49:10.947Z,82.70
2023-04-15T13:51:38.928Z,83.16
2023-04-15T13:54:07.155Z,82.64
2023-04-15T13:56:35.575Z,82.81
2023-04-15T13:59:03.853Z,82.35
2023-04-15T14:01:32.225Z,82.33
2023-04-15T14:04:00.569Z,81.94
2023-04-15T14:06:29.121Z,81.74
2023-04-15T14:08:57.370Z,81.50
2023-04-15T14:11:25.372Z,81.65
2023-04-15T14:13:56.068Z,81.57
2023-04-15T14:16:24.325Z,81.74
2023-04-15T14:18:52.666Z,81.52
2023-04-15T14:21:21.025Z,81.08
2023-04-15T14:23:49.055Z,81.35
2023-04-15T14:26:17.125Z,81.56
2023-04-15T14:28:45.266Z,80.48
2023-04-15T14:31:14.349Z,79.66
2023-04-15T14:33:45.018Z,80.33
2023-04-15T14:36:13.276Z,79.92
2023-04-15T14:38:41.492Z,79.73
2023-04-15T14:41:10.253Z,80.05
2023-04-15T14:43:39.434Z,79.87
2023-04-15T14:46:08.627Z,79.90
2023-04-15T14:48:37.173Z,80.23
2023-04-15T14:51:08.693Z,80.12
2023-04-15T14:53:36.714Z,79.51
2023-04-15T14:56:05.376Z,78.95
2023-04-15T14:58:33.610Z,78.95
2023-04-15T15:01:03.061Z,78.89
2023-04-15T15:03:34.084Z,78.82
2023-04-15T15:06:02.413Z,78.85
2023-04-15T15:08:30.593Z,78.98
2023-04-15T15:10:58.856Z,79.19
2023-04-15T15:13:26.948Z,78.75
2023-04-15T15:15:55.184Z,78.44
2023-04-15T15:18:25.721Z,78.07
2023-04-15T15:20:53.796Z,77.87
2023-04-15T15:23:21.724Z,77.65
2023-04-15T15:25:50.012Z,77.21
2023-04-15T15:28:18.302Z,77.07
2023-04-15T15:30:46.307Z,76.95
2023-04-15T15:33:14.376Z,76.81
2023-04-15T15:35:42.505Z,77.52
2023-04-15T15:38:12.237Z,77.49
2023-04-15T15:40:40.551Z,77.74
2023-04-15T15:43:09.020Z,77.69
2023-04-15T15:45:37.045Z,77.81
2023-04-15T15:48:06.026Z,78.03
2023-04-15T15:50:34.542Z,77.91
2023-04-15T15:53:02.560Z,77.97
2023-04-15T15:55:30.719Z,77.87
2023-04-15T15:57:58.651Z,77.75
2023-04-15T16:00:26.519Z,77.77
2023-04-15T16:05:28.588Z,77.45
2023-04-15T16:07:56.699Z,77.04
2023-04-15T16:10:24.754Z,77.28
2023-04-15T16:12:52.921Z,77.14
2023-04-15T16:15:23.940Z,76.86
2023-04-15T16:17:52.359Z,77.06
2023-04-15T16:20:20.718Z,77.18
2023-04-15T16:22:48.818Z,76.78
2023-04-15T16:25:16.943Z,77.05
2023-04-15T16:27:57.637Z,77.16
2023-04-15T16:30:27.470Z,76.43
2023-04-15T16:32:55.537Z,76.24
2023-04-15T16:35:23.484Z,76.08
2023-04-15T16:37:51.531Z,76.08
2023-04-15T16:40:19.744Z,76.37
2023-04-15T16:42:48.437Z,76.06
2023-04-15T16:45:20.006Z,76.27
2023-04-15T16:47:48.127Z,76.13
2023-04-15T16:50:19.011Z,75.83
2023-04-15T16:52:47.413Z,76.11
2023-04-15T16:55:15.869Z,76.09
2023-04-15T16:58:03.240Z,76.41
2023-04-15T17:00:33.237Z,76.37
2023-04-15T17:03:01.511Z,76.12
2023-04-15T17:05:31.969Z,76.11
2023-04-15T17:08:00.400Z,75.93
2023-04-15T17:10:28.310Z,76.20
2023-04-15T17:12:57.678Z,76.25
2023-04-15T17:15:26.700Z,76.29
2023-04-15T17:17:54.924Z,76.35
2023-04-15T17:20:23.100Z,76.43
2023-04-15T17:22:51.583Z,76.76
2023-04-15T17:25:19.656Z,76.74
2023-04-15T17:27:47.612Z,76.75
2023-04-15T17:30:16.009Z,77.03
2023-04-15T17:32:44.329Z,77.18
2023-04-15T17:35:12.455Z,77.26
2023-04-15T17:37:41.113Z,77.25
2023-04-15T17:40:09.516Z,77.43
2023-04-15T17:42:37.392Z,77.47
2023-04-15T17:45:07.502Z,77.67
2023-04-15T17:47:35.649Z,77.77
2023-04-15T17:50:03.853Z,77.83
2023-04-15T17:52:32.185Z,78.12
2023-04-15T17:55:00.391Z,78.18
2023-04-15T17:57:28.881Z,78.31
2023-04-15T17:59:57.647Z,78.37
2023-04-15T18:02:25.835Z,78.53
2023-04-15T18:04:54.236Z,78.58
2023-04-15T18:07:26.047Z,78.69
2023-04-15T18:09:56.068Z,78.75
2023-04-15T18:12:24.204Z,78.90
2023-04-15T18:14:52.971Z,78.93
2023-04-15T18:17:21.034Z,78.99
2023-04-15T18:19:49.144Z,78.93
2023-04-15T18:22:17.740Z,78.93
2023-04-15T18:24:45.878Z,78.93
2023-04-15T18:27:18.399Z,78.79
2023-04-15T18:29:47.464Z,78.70
2023-04-15T18:32:15.420Z,78.50
2023-04-15T18:34:43.647Z,78.59
2023-04-15T18:37:11.871Z,78.75
2023-04-15T18:39:39.916Z,78.74
2023-04-15T18:42:08.125Z,78.81
2023-04-15T18:44:36.126Z,78.70
2023-04-15T18:47:04.317Z,78.81
2023-04-15T18:49:33.413Z,78.82
2023-04-15T18:52:01.378Z,78.82
2023-04-15T18:54:30.753Z,78.88
2023-04-15T18:57:02.281Z,78.77
2023-04-15T18:59:31.978Z,79.01
2023-04-15T19:02:01.507Z,79.03
2023-04-15T19:04:29.978Z,79.04
2023-04-15T19:06:59.344Z,79.20
2023-04-15T19:09:28.973Z,79.39
2023-04-15T19:11:57.809Z,79.57
2023-04-15T19:14:25.996Z,79.61
2023-04-15T19:16:54.283Z,79.66
2023-04-15T19:19:22.558Z,79.75
2023-04-15T19:21:51.190Z,79.85
2023-04-15T19:24:20.126Z,79.76
2023-04-15T19:26:52.633Z,79.73
2023-04-15T19:29:22.036Z,79.78
2023-04-15T19:31:50.720Z,79.70
2023-04-15T19:34:18.716Z,79.80
2023-04-15T19:36:46.911Z,79.79
2023-04-15T19:39:14.842Z,79.62
2023-04-15T19:41:44.503Z,79.68
2023-04-15T19:44:13.849Z,79.77
2023-04-15T19:46:44.245Z,79.67
2023-04-15T19:49:12.537Z,79.69
2023-04-15T19:51:41.600Z,79.80
2023-04-15T19:54:09.483Z,79.97
2023-04-15T19:56:37.514Z,79.70
2023-04-15T19:59:06.039Z,79.87
2023-04-15T20:01:34.081Z,79.92
2023-04-15T20:04:04.206Z,79.94
2023-04-15T20:06:32.852Z,79.92
2023-04-15T20:09:01.132Z,80.07
2023-04-15T20:12:45.606Z,79.98
2023-04-15T20:14:17.937Z,80.02
2023-04-15T20:16:46.265Z,79.95
2023-04-15T20:19:14.749Z,80.08
2023-04-15T20:21:43.130Z,79.94
2023-04-15T20:24:11.243Z,80.05
2023-04-15T20:26:39.795Z,80.03
2023-04-15T20:29:08.906Z,80.03
2023-04-15T20:31:40.122Z,80.05
2023-04-15T20:34:10.658Z,80.12
2023-04-15T20:36:39.971Z,80.17
2023-04-15T20:39:08.141Z,80.10
2023-04-15T20:41:36.097Z,80.03
2023-04-15T20:44:04.301Z,80.01
2023-04-15T20:46:32.390Z,79.94
2023-04-15T20:49:01.012Z,80.06
2023-04-15T20:51:33.114Z,80.15
2023-04-15T20:54:01.439Z,79.99
2023-04-15T20:56:29.547Z,80.03
2023-04-15T20:58:57.743Z,80.01
2023-04-15T21:01:26.062Z,80.07
2023-04-15T21:03:54.174Z,80.13
2023-04-15T21:06:22.261Z,80.13
2023-04-15T21:08:52.602Z,80.01
2023-04-15T21:11:38.811Z,80.16
2023-04-15T21:14:09.371Z,80.07
2023-04-15T21:16:37.388Z,80.10
2023-04-15T21:19:05.723Z,80.16
2023-04-15T21:21:34.154Z,80.22
2023-04-15T21:24:02.370Z,80.40
2023-04-15T21:26:30.392Z,80.20
2023-04-15T21:28:58.606Z,80.43
2023-04-15T21:31:26.647Z,80.36
2023-04-15T21:33:54.565Z,80.47
2023-04-15T21:36:22.643Z,80.35
2023-04-15T21:38:50.753Z,80.32
2023-04-15T21:41:18.694Z,80.45
2023-04-15T21:43:47.243Z,80.45
2023-04-15T21:46:24.217Z,80.49
2023-04-15T21:48:53.701Z,80.57
2023-04-15T21:51:21.822Z,80.58
2023-04-15T21:53:49.674Z,80.59
2023-04-15T21:56:18.008Z,80.64
2023-04-15T21:58:46.303Z,80.66
2023-04-15T22:01:14.434Z,80.71
2023-04-15T22:03:42.799Z,80.72
2023-04-15T22:06:11.176Z,80.98
2023-04-15T22:08:52.562Z,80.82
2023-04-15T22:11:28.689Z,80.92
2023-04-15T22:13:57.870Z,81.09
2023-04-15T22:16:26.690Z,80.96
2023-04-15T22:18:55.734Z,81.05
2023-04-15T22:21:23.935Z,81.16
2023-04-15T22:24:38.792Z,81.05
2023-04-15T22:26:41.952Z,81.00
2023-04-15T22:29:10.741Z,81.25
2023-04-15T22:31:38.789Z,81.11
2023-04-15T22:34:06.908Z,81.29
2023-04-15T22:36:35.134Z,81.23
2023-04-15T22:39:03.175Z,81.28
2023-04-15T22:41:31.368Z,81.30
2023-04-15T22:43:59.521Z,81.35
2023-04-15T22:46:27.514Z,81.44
2023-04-15T22:48:55.909Z,81.40
2023-04-15T22:51:28.028Z,81.58
2023-04-15T22:53:56.577Z,81.51
2023-04-15T22:56:24.776Z,81.54
2023-04-15T22:58:52.736Z,81.36
2023-04-15T23:01:21.508Z,81.61
2023-04-15T23:03:56.304Z,81.66
2023-04-15T23:06:25.820Z,81.68
2023-04-15T23:08:54.322Z,81.70
2023-04-15T23:11:22.422Z,81.75
2023-04-15T23:13:50.919Z,81.82
2023-04-15T23:16:19.054Z,81.98
2023-04-15T23:18:47.012Z,82.01
2023-04-15T23:21:15.159Z,81.89
2023-04-15T23:23:43.169Z,81.91
2023-04-15T23:26:11.015Z,81.96
2023-04-15T23:28:39.157Z,81.97
2023-04-15T23:31:07.241Z,82.07
2023-04-15T23:33:35.208Z,82.03
2023-04-15T23:36:06.710Z,81.98
2023-04-15T23:38:35.456Z,82.06
2023-04-15T23:41:03.446Z,82.03
2023-04-15T23:43:31.687Z,82.09
2023-04-15T23:45:59.748Z,82.21
2023-04-15T23:48:27.679Z,82.25
2023-04-15T23:50:56.232Z,82.27
2023-04-15T23:53:24.322Z,82.18
2023-04-15T23:55:52.174Z,82.26
2023-04-15T23:58:20.443Z,82.32
